createdAt,value
2023-03-14T00:00:58.823Z,10.60
2023-03-14T00:05:23.093Z,10.60
2023-03-14T00:09:47.191Z,10.60
2023-03-14T00:14:11.722Z,10.50
2023-03-14T00:18:37.494Z,10.50
2023-03-14T00:23:01.553Z,10.50
2023-03-14T00:27:25.690Z,10.50
2023-03-14T00:31:49.878Z,10.50
2023-03-14T00:36:17.979Z,10.50
2023-03-14T00:40:42.604Z,10.50
2023-03-14T00:45:10.171Z,10.50
2023-03-14T00:49:35.914Z,10.50
2023-03-14T00:54:02.152Z,10.50
2023-03-14T00:58:26.291Z,10.60
2023-03-14T01:02:53.365Z,10.60
2023-03-14T01:07:18.385Z,10.60
2023-03-14T01:11:47.415Z,10.60
2023-03-14T01:16:12.680Z,10.60
2023-03-14T01:20:38.961Z,10.60
2023-03-14T01:25:03.046Z,10.60
2023-03-14T01:29:28.563Z,10.60
2023-03-14T01:33:53.111Z,10.60
2023-03-14T01:38:17.538Z,10.60
2023-03-14T01:42:48.084Z,10.60
2023-03-14T01:47:13.393Z,10.60
2023-03-14T01:51:43.122Z,10.70
2023-03-14T01:56:10.362Z,10.70
2023-03-14T02:00:34.768Z,10.60
2023-03-14T02:05:01.722Z,10.60
2023-03-14T02:09:32.294Z,10.60
2023-03-14T02:13:58.200Z,10.60
2023-03-14T02:18:34.040Z,10.60
2023-03-14T02:23:13.495Z,10.50
2023-03-14T02:27:39.704Z,10.50
2023-03-14T02:32:04.365Z,10.50
2023-03-14T02:36:29.728Z,10.50
2023-03-14T02:40:55.113Z,10.50
2023-03-14T02:45:40.665Z,10.50
2023-03-14T02:50:10.175Z,10.50
2023-03-14T02:54:34.229Z,10.50
2023-03-14T02:58:58.811Z,10.50
2023-03-14T03:04:02.858Z,10.60
2023-03-14T03:08:29.288Z,10.60
2023-03-14T03:12:54.417Z,10.50
2023-03-14T03:17:21.861Z,10.50
2023-03-14T03:21:47.186Z,10.50
2023-03-14T03:26:12.611Z,10.50
2023-03-14T03:30:40.235Z,10.50
2023-03-14T03:35:05.335Z,10.50
2023-03-14T03:39:32.991Z,10.60
2023-03-14T03:43:57.034Z,10.60
2023-03-14T03:48:21.325Z,10.70
2023-03-14T03:52:45.544Z,10.70
2023-03-14T03:57:10.979Z,10.60
2023-03-14T04:01:34.897Z,10.60
2023-03-14T04:06:03.153Z,10.70
2023-03-14T04:10:29.202Z,10.60
2023-03-14T04:15:17.520Z,10.60
2023-03-14T04:19:45.247Z,10.60
2023-03-14T04:24:07.427Z,10.60
2023-03-14T04:28:32.872Z,10.50
2023-03-14T04:32:58.829Z,10.50
2023-03-14T04:37:24.492Z,10.50
2023-03-14T04:41:48.744Z,10.50
2023-03-14T04:46:12.810Z,10.50
2023-03-14T04:50:38.731Z,10.60
2023-03-14T04:54:58.064Z,10.60
2023-03-14T04:59:24.031Z,10.60
2023-03-14T05:03:50.709Z,10.60
2023-03-14T05:08:33.993Z,10.60
2023-03-14T05:13:10.958Z,10.70
2023-03-14T05:17:50.217Z,10.70
2023-03-14T05:22:32.753Z,10.70
2023-03-14T05:27:17.554Z,10.70
2023-03-14T05:31:58.312Z,10.60
2023-03-14T05:36:40.846Z,10.50
2023-03-14T05:41:33.856Z,10.50
2023-03-14T05:46:22.254Z,10.40
2023-03-14T05:50:57.125Z,10.40
2023-03-14T05:55:41.907Z,10.30
2023-03-14T06:00:28.906Z,10.30
2023-03-14T06:05:14.619Z,10.30
2023-03-14T06:09:39.003Z,10.40
2023-03-14T06:14:02.964Z,10.40
2023-03-14T06:18:27.160Z,10.50
2023-03-14T06:22:53.228Z,10.60
2023-03-14T06:27:17.514Z,10.70
2023-03-14T06:31:42.066Z,10.70
2023-03-14T06:36:07.962Z,10.70
2023-03-14T06:40:34.467Z,10.70
2023-03-14T06:45:05.053Z,10.80
2023-03-14T06:49:29.143Z,10.80
2023-03-14T06:53:55.746Z,10.80
2023-03-14T06:58:24.564Z,10.80
2023-03-14T07:02:48.510Z,10.90
2023-03-14T07:07:15.700Z,10.90
2023-03-14T07:11:39.855Z,11.00
2023-03-14T07:16:06.894Z,11.10
2023-03-14T07:20:33.335Z,11.10
2023-03-14T07:24:58.883Z,11.20
2023-03-14T07:29:24.111Z,11.40
2023-03-14T07:33:51.186Z,11.60
2023-03-14T07:38:16.622Z,11.70
2023-03-14T07:43:00.478Z,11.90
2023-03-14T07:47:33.667Z,12.10
2023-03-14T07:52:00.090Z,12.40
2023-03-14T07:56:23.970Z,12.70
2023-03-14T08:00:47.891Z,13.00
2023-03-14T08:05:12.246Z,13.30
2023-03-14T08:09:37.526Z,14.00
2023-03-14T08:14:01.383Z,14.30
2023-03-14T08:18:25.268Z,14.40
2023-03-14T08:22:49.967Z,14.40
2023-03-14T08:27:16.328Z,14.70
2023-03-14T08:31:40.307Z,15.60
2023-03-14T08:36:04.797Z,15.80
2023-03-14T08:40:29.036Z,15.50
2023-03-14T08:44:54.788Z,15.20
2023-03-14T08:49:18.720Z,15.10
2023-03-14T08:53:42.608Z,15.00
2023-03-14T08:58:06.498Z,15.10
2023-03-14T09:02:31.719Z,15.10
2023-03-14T09:06:55.555Z,15.20
2023-03-14T09:11:19.875Z,15.50
2023-03-14T09:15:44.326Z,16.30
2023-03-14T09:20:11.142Z,17.10
2023-03-14T09:24:35.017Z,17.40
2023-03-14T09:28:59.281Z,17.30
2023-03-14T09:33:23.525Z,17.00
2023-03-14T09:37:49.670Z,16.90
2023-03-14T09:42:19.713Z,17.10
2023-03-14T09:46:48.411Z,17.20
2023-03-14T09:51:16.479Z,17.10
2023-03-14T09:55:42.490Z,17.00
2023-03-14T10:00:15.790Z,16.70
2023-03-14T10:04:42.575Z,16.40
2023-03-14T10:09:07.025Z,16.10
2023-03-14T10:13:32.762Z,15.80
2023-03-14T10:17:56.754Z,15.50
2023-03-14T10:22:21.909Z,15.40
2023-03-14T10:26:45.872Z,15.20
2023-03-14T10:31:11.457Z,15.10
2023-03-14T10:35:36.967Z,14.90
2023-03-14T10:40:06.502Z,14.80
2023-03-14T10:44:32.914Z,14.60
2023-03-14T10:48:58.660Z,14.50
2023-03-14T10:53:22.432Z,14.40
2023-03-14T10:57:46.668Z,14.40
2023-03-14T11:02:28.667Z,14.30
2023-03-14T11:07:01.155Z,14.20
2023-03-14T11:11:27.687Z,14.20
2023-03-14T11:16:02.408Z,14.20
2023-03-14T11:20:38.105Z,14.20
2023-03-14T11:25:17.167Z,14.10
2023-03-14T11:29:43.773Z,14.00
2023-03-14T11:34:17.435Z,14.10
2023-03-14T11:38:48.278Z,14.20
2023-03-14T11:43:20.964Z,14.50
2023-03-14T11:47:47.055Z,14.60
2023-03-14T11:52:15.985Z,14.80
2023-03-14T11:56:46.623Z,14.80
2023-03-14T12:01:17.586Z,14.90
2023-03-14T12:06:04.746Z,15.00
2023-03-14T12:10:30.794Z,15.10
2023-03-14T12:14:59.240Z,15.30
2023-03-14T12:19:37.200Z,15.60
2023-03-14T12:24:01.117Z,15.70
2023-03-14T12:28:33.297Z,15.80
2023-03-14T12:33:24.210Z,15.90
2023-03-14T12:37:53.281Z,15.80
2023-03-14T12:42:29.682Z,15.60
2023-03-14T12:46:59.899Z,15.30
2023-03-14T12:51:32.180Z,15.20
2023-03-14T12:56:05.902Z,15.20
2023-03-14T13:00:35.244Z,15.30
2023-03-14T13:05:06.442Z,15.50
2023-03-14T13:09:55.475Z,15.50
2023-03-14T13:14:22.064Z,15.50
2023-03-14T13:18:48.000Z,15.40
2023-03-14T13:23:23.206Z,15.30
2023-03-14T13:27:47.638Z,15.30
2023-03-14T13:32:23.031Z,15.40
2023-03-14T13:36:50.086Z,15.40
2023-03-14T13:41:14.150Z,15.40
2023-03-14T13:45:51.472Z,15.40
2023-03-14T13:50:19.563Z,15.40
2023-03-14T13:54:43.415Z,15.40
2023-03-14T13:59:22.660Z,15.40
2023-03-14T14:03:50.909Z,15.50
2023-03-14T14:08:17.309Z,15.50
2023-03-14T14:12:46.813Z,15.40
2023-03-14T14:17:14.288Z,15.30
2023-03-14T14:21:38.631Z,15.30
2023-03-14T14:26:08.927Z,15.30
2023-03-14T14:30:35.597Z,15.20
2023-03-14T14:35:01.226Z,15.10
2023-03-14T14:39:29.994Z,14.90
2023-03-14T14:43:55.759Z,14.90
2023-03-14T14:48:23.170Z,14.80
2023-03-14T14:52:48.775Z,14.70
2023-03-14T14:57:20.807Z,14.60
2023-03-14T15:01:48.593Z,14.60
2023-03-14T15:06:14.488Z,14.50
2023-03-14T15:10:38.417Z,14.40
2023-03-14T15:15:02.732Z,14.10
2023-03-14T15:19:31.440Z,13.80
2023-03-14T15:23:56.241Z,13.40
2023-03-14T15:28:22.023Z,12.70
2023-03-14T15:32:46.142Z,11.80
2023-03-14T15:37:14.000Z,10.90
2023-03-14T15:41:37.887Z,10.00
2023-03-14T15:46:02.070Z,9.30
2023-03-14T15:50:26.863Z,8.80
2023-03-14T15:54:52.106Z,8.40
2023-03-14T15:59:15.880Z,8.00
2023-03-14T16:03:39.876Z,7.70
2023-03-14T16:08:05.547Z,7.40
2023-03-14T16:12:31.226Z,7.20
2023-03-14T16:17:00.118Z,7.00
2023-03-14T16:21:24.914Z,6.90
2023-03-14T16:25:48.916Z,6.60
2023-03-14T16:30:15.342Z,6.40
2023-03-14T16:34:40.860Z,6.20
2023-03-14T16:39:05.132Z,6.00
2023-03-14T16:43:29.291Z,5.80
2023-03-14T16:47:54.508Z,5.70
2023-03-14T16:52:18.355Z,5.50
2023-03-14T16:56:42.247Z,5.50
2023-03-14T17:01:10.345Z,5.30
2023-03-14T17:05:36.216Z,5.20
2023-03-14T17:10:00.047Z,5.10
2023-03-14T17:14:24.418Z,5.00
2023-03-14T17:18:48.312Z,4.90
2023-03-14T17:23:13.705Z,4.70
2023-03-14T17:27:37.554Z,4.70
2023-03-14T17:32:01.383Z,4.60
2023-03-14T17:36:30.353Z,4.50
2023-03-14T17:40:55.825Z,4.50
2023-03-14T17:45:20.162Z,4.50
2023-03-14T17:49:46.680Z,4.50
2023-03-14T17:54:10.600Z,4.50
2023-03-14T17:58:37.548Z,4.50
2023-03-14T18:03:01.509Z,4.50
2023-03-14T18:07:25.701Z,4.50
2023-03-14T18:11:58.777Z,4.50
2023-03-14T18:16:27.329Z,4.50
2023-03-14T18:20:52.596Z,4.50
2023-03-14T18:25:16.397Z,4.50
2023-03-14T18:29:40.307Z,4.50
2023-03-14T18:34:05.647Z,4.40
2023-03-14T18:38:29.546Z,4.40
2023-03-14T18:42:53.518Z,4.30
2023-03-14T18:47:17.862Z,4.20
2023-03-14T18:51:44.010Z,4.20
2023-03-14T18:56:08.825Z,4.10
2023-03-14T19:00:32.744Z,4.00
2023-03-14T19:04:57.554Z,3.90
2023-03-14T19:09:23.007Z,3.90
2023-03-14T19:13:47.141Z,3.80
2023-03-14T19:18:11.303Z,3.70
2023-03-14T19:22:35.113Z,3.70
2023-03-14T19:27:00.898Z,3.60
2023-03-14T19:31:24.936Z,3.60
2023-03-14T19:35:49.483Z,3.60
2023-03-14T19:40:14.502Z,3.60
2023-03-14T19:44:40.456Z,3.70
2023-03-14T19:49:05.742Z,3.70
2023-03-14T19:53:29.637Z,3.70
2023-03-14T19:57:53.593Z,3.60
2023-03-14T20:02:20.786Z,3.50
2023-03-14T20:06:44.742Z,3.40
2023-03-14T20:11:09.560Z,3.30
2023-03-14T20:15:33.860Z,3.30
2023-03-14T20:19:59.376Z,3.30
2023-03-14T20:24:23.229Z,3.30
2023-03-14T20:28:48.197Z,3.20
2023-03-14T20:33:13.327Z,3.20
2023-03-14T20:37:38.647Z,3.20
2023-03-14T20:42:02.543Z,3.20
2023-03-14T20:46:26.346Z,3.10
2023-03-14T20:50:50.711Z,3.10
2023-03-14T20:55:16.192Z,3.00
2023-03-14T20:59:39.972Z,3.00
2023-03-14T21:04:03.870Z,2.90
2023-03-14T21:08:27.795Z,2.90
2023-03-14T21:12:52.996Z,2.80
2023-03-14T21:17:16.898Z,2.80
2023-03-14T21:21:41.092Z,2.70
2023-03-14T21:26:05.675Z,2.70
2023-03-14T21:30:31.391Z,2.60
2023-03-14T21:34:55.205Z,2.60
2023-03-14T21:39:18.993Z,2.60
2023-03-14T21:43:45.905Z,2.50
2023-03-14T21:48:11.237Z,2.50
2023-03-14T21:52:35.188Z,2.50
2023-03-14T21:56:59.545Z,2.50
2023-03-14T22:01:23.926Z,2.50
2023-03-14T22:05:49.346Z,2.50
2023-03-14T22:10:14.680Z,2.50
2023-03-14T22:14:38.880Z,2.50
2023-03-14T22:19:03.121Z,2.50
2023-03-14T22:23:28.270Z,2.50
2023-03-14T22:27:52.151Z,2.50
2023-03-14T22:32:15.998Z,2.50
2023-03-14T22:36:40.012Z,2.60
2023-03-14T22:41:05.638Z,2.60
2023-03-14T22:45:29.461Z,2.70
2023-03-14T22:49:53.341Z,2.80
2023-03-14T22:54:17.237Z,2.90
2023-03-14T22:58:42.450Z,3.00
2023-03-14T23:03:06.370Z,3.10
2023-03-14T23:07:30.214Z,3.10
2023-03-14T23:11:54.782Z,3.10
2023-03-14T23:16:25.203Z,3.20
2023-03-14T23:20:51.442Z,3.20
2023-03-14T23:25:15.260Z,3.20
2023-03-14T23:29:39.144Z,3.10
2023-03-14T23:34:04.812Z,3.10
2023-03-14T23:38:29.327Z,3.10
2023-03-14T23:42:53.546Z,3.10
2023-03-14T23:47:17.482Z,3.10
2023-03-14T23:51:42.811Z,3.00
2023-03-14T23:56:07.562Z,3.00
